Lanzarote, Canary Islands

12:36 PM WEST on April 18, 2015 (GMT +0100)
Lanzarote | | Change Station
CLOSE
Current Station
Airport
Location: Lanzarote,
Elevation: 69 ft
Nearby Weather Stations

Elev 69 ft 28.95 °N, 13.60 °W | Updated 6 minutes ago

Mostly Cloudy
Mostly Cloudy
72 °F
Feels Like 72 °F
N
16
Wind Variable Wind from North

Today
High -- | Low -- °F
--% Chance of Precip.
Yesterday
High -- | Low -- °F
Precip. -- in
7:25 AM 8:22 PM
Waning Crescent, 0% visible
Pressure 30.06 in
Visibility 6.2 miles
Clouds Few 3000 ft
Mostly Cloudy 4000 ft
Dew Point 52 °F
Humidity 50%
Rainfall 0.00 in
Snow Depth Not available.
UV 6 out of 12
Pollen Not available.
Air Quality Not available.
Flu Activity Not available.
METAR GCRR 181130Z 36014KT 330V040 9999 FEW030 BKN040 22/11 Q1018

More Conditions Fewer Conditions

Pressure 30.06 in
Visibility 6.2 miles
Clouds Few 3000 ft
Mostly Cloudy 4000 ft
Dew Point 52 °F
Humidity 50%
Rainfall 0.00 in
Snow Depth Not available.
UV 6 out of 12
Pollen Not available.
Air Quality Not available.
Flu Activity Not available.
METAR GCRR 181130Z 36014KT 330V040 9999 FEW030 BKN040 22/11 Q1018

More Conditions Fewer Conditions

10-Day Weather Forecast

Almanac

Astronomy

Apr. 18, 2015 Rise Set
Actual Time
Civil Twilight
Nautical Twilight
Astronomical Twilight
Moon
Length of Visible Light
Length of Day
Tomorrow will be .
, % of the Moon is Illuminated

Today's Extremes

Country Highs Country Lows

Community

WunderPhotos

Upload Photos

1,814,368 photos uploaded!

WunderBlogs® & News

Nearby

Air Quality

  Air Quality AQ Index Pollutant
Not available.

Snow Depth

Station Depth Elevation

Earthquake Activity

City Distance Mag. Time & Date
Minimum magnitude displayed is 2.5.

Coastal Water Temperatures

Place Temperature

Stations

Nearby Weather Stations

Station Location Temp. Windchill Dew Point Humidity Wind Precip. Elev Updated Type